createdAt,value
2023-05-10T00:01:29.839Z,98857.13
2023-05-10T00:03:56.224Z,98864.13
2023-05-10T00:06:22.904Z,98857.28
2023-05-10T00:08:49.204Z,98859.63
2023-05-10T00:11:15.668Z,98854.28
2023-05-10T00:13:42.018Z,98854.63
2023-05-10T00:16:08.436Z,98850.59
2023-05-10T00:18:34.936Z,98861.59
2023-05-10T00:21:01.375Z,98862.91
2023-05-10T00:23:27.692Z,98859.56
2023-05-10T00:25:54.040Z,98861.53
2023-05-10T00:28:20.421Z,98863.25
2023-05-10T00:30:46.708Z,98861.41
2023-05-10T00:33:13.389Z,98861.06
2023-05-10T00:35:39.697Z,98867.53
2023-05-10T00:38:06.046Z,98865.06
2023-05-10T00:40:32.439Z,98860.69
2023-05-10T00:43:04.065Z,98864.56
2023-05-10T00:45:34.231Z,98860.25
2023-05-10T00:48:03.161Z,98866.72
2023-05-10T00:50:29.767Z,98867.72
2023-05-10T00:52:56.230Z,98866.38
2023-05-10T00:55:22.707Z,98871.69
2023-05-10T00:57:49.092Z,98862.09
2023-05-10T01:00:19.031Z,98862.22
2023-05-10T01:02:47.241Z,98860.56
2023-05-10T01:05:14.459Z,98865.53
2023-05-10T01:07:40.932Z,98870.38
2023-05-10T01:10:08.585Z,98862.22
2023-05-10T01:12:39.132Z,98868.69
2023-05-10T01:15:08.328Z,98866.06
2023-05-10T01:17:38.645Z,98863.88
2023-05-10T01:20:08.979Z,98868.53
2023-05-10T01:22:57.018Z,98871.50
2023-05-10T01:25:47.577Z,98864.38
2023-05-10T01:28:35.743Z,98867.84
2023-05-10T01:31:26.505Z,98875.44
2023-05-10T01:34:07.243Z,98884.78
2023-05-10T01:36:46.246Z,98871.50
2023-05-10T01:39:21.674Z,98869.81
2023-05-10T01:42:08.104Z,98872.16
2023-05-10T01:44:39.540Z,98875.81
2023-05-10T01:47:16.582Z,98886.72
2023-05-10T01:49:48.499Z,98887.03
2023-05-10T01:52:20.116Z,98886.94
2023-05-10T01:54:54.937Z,98879.44
2023-05-10T01:57:25.682Z,98884.16
2023-05-10T01:59:53.053Z,98881.81
2023-05-10T02:02:25.050Z,98878.09
2023-05-10T02:04:53.860Z,98880.13
2023-05-10T02:07:22.302Z,98890.34
2023-05-10T02:09:48.904Z,98886.56
2023-05-10T02:12:16.953Z,98893.31
2023-05-10T02:14:44.239Z,98893.53
2023-05-10T02:17:11.747Z,98890.94
2023-05-10T02:19:41.919Z,98906.59
2023-05-10T02:22:09.811Z,98901.38
2023-05-10T02:24:38.118Z,98900.81
2023-05-10T02:27:04.963Z,98909.84
2023-05-10T02:29:33.264Z,98912.91
2023-05-10T02:32:00.630Z,98910.09
2023-05-10T02:34:28.428Z,98917.19
2023-05-10T02:36:55.896Z,98908.59
2023-05-10T02:39:23.027Z,98902.94
2023-05-10T02:41:50.940Z,98908.59
2023-05-10T02:44:20.228Z,98898.13
2023-05-10T02:46:47.785Z,98896.94
2023-05-10T02:49:14.317Z,98899.78
2023-05-10T02:51:51.602Z,98905.38
2023-05-10T02:54:25.503Z,98905.53
2023-05-10T02:56:57.180Z,98906.22
2023-05-10T02:59:23.627Z,98907.19
2023-05-10T03:01:50.117Z,98907.19
2023-05-10T03:04:16.667Z,98903.56
2023-05-10T03:06:43.343Z,98911.56
2023-05-10T03:09:11.930Z,98908.19
2023-05-10T03:12:09.567Z,98920.47
2023-05-10T03:14:57.836Z,98911.88
2023-05-10T03:17:37.519Z,98911.03
2023-05-10T03:20:11.202Z,98911.25
2023-05-10T03:22:41.837Z,98916.69
2023-05-10T03:25:11.708Z,98912.47
2023-05-10T03:27:44.251Z,98922.19
2023-05-10T03:30:12.933Z,98920.06
2023-05-10T03:32:39.939Z,98909.56
2023-05-10T03:35:12.877Z,98924.38
2023-05-10T03:37:39.976Z,98925.69
2023-05-10T03:40:07.513Z,98928.16
2023-05-10T03:42:36.704Z,98915.88
2023-05-10T03:45:03.284Z,98917.88
2023-05-10T03:47:30.632Z,98929.13
2023-05-10T03:49:58.404Z,98917.13
2023-05-10T03:52:24.747Z,98924.97
2023-05-10T03:54:51.226Z,98918.75
2023-05-10T03:57:17.804Z,98921.94
2023-05-10T03:59:44.335Z,98931.09
2023-05-10T04:02:10.712Z,98935.00
2023-05-10T04:04:37.165Z,98928.38
2023-05-10T04:07:03.831Z,98931.28
2023-05-10T04:09:30.260Z,98931.97
2023-05-10T04:11:56.820Z,98930.81
2023-05-10T04:14:23.177Z,98930.31
2023-05-10T04:16:49.569Z,98938.06
2023-05-10T04:19:15.884Z,98930.41
2023-05-10T04:21:42.238Z,98935.63
2023-05-10T04:24:08.574Z,98938.75
2023-05-10T04:26:34.903Z,98936.53
2023-05-10T04:29:01.191Z,98933.25
2023-05-10T04:31:28.742Z,98929.81
2023-05-10T04:33:55.243Z,98939.94
2023-05-10T04:36:21.632Z,98948.28
2023-05-10T04:38:48.084Z,98947.09
2023-05-10T04:41:14.406Z,98953.72
2023-05-10T04:43:40.776Z,98953.72
2023-05-10T04:46:08.125Z,98954.69
2023-05-10T04:48:34.651Z,98956.16
2023-05-10T04:51:01.072Z,98955.66
2023-05-10T04:53:27.517Z,98956.34
2023-05-10T04:55:53.914Z,98963.50
2023-05-10T04:58:20.232Z,98966.16
2023-05-10T05:00:46.688Z,98971.47
2023-05-10T05:03:13.185Z,98967.19
2023-05-10T05:05:39.597Z,98984.47
2023-05-10T05:08:05.964Z,98981.13
2023-05-10T05:10:32.550Z,98980.28
2023-05-10T05:12:58.911Z,98982.63
2023-05-10T05:15:25.300Z,98986.59
2023-05-10T05:17:51.668Z,98989.44
2023-05-10T05:20:19.839Z,98989.16
2023-05-10T05:22:46.199Z,98987.38
2023-05-10T05:25:12.710Z,98996.34
2023-05-10T05:27:39.030Z,98999.25
2023-05-10T05:30:06.056Z,98998.97
2023-05-10T05:32:32.442Z,98998.97
2023-05-10T05:34:59.005Z,99006.47
2023-05-10T05:37:25.347Z,99003.13
2023-05-10T05:39:52.016Z,98993.66
2023-05-10T05:42:19.544Z,99002.00
2023-05-10T05:44:45.896Z,98998.75
2023-05-10T05:47:12.203Z,99004.13
2023-05-10T05:49:38.525Z,98996.09
2023-05-10T05:52:05.429Z,99001.91
2023-05-10T05:54:32.553Z,99005.97
2023-05-10T05:57:01.082Z,99005.69
2023-05-10T05:59:28.023Z,98999.38
2023-05-10T06:01:55.393Z,99011.50
2023-05-10T06:04:21.862Z,99017.00
2023-05-10T06:06:48.282Z,99011.03
2023-05-10T06:09:14.587Z,99013.09
2023-05-10T06:11:41.082Z,99004.44
2023-05-10T06:14:08.647Z,99012.47
2023-05-10T06:16:35.821Z,99008.47
2023-05-10T06:19:03.300Z,99014.31
2023-05-10T06:21:29.786Z,99014.59
2023-05-10T06:23:56.238Z,99017.59
2023-05-10T06:26:22.530Z,99016.44
2023-05-10T06:28:48.943Z,99016.78
2023-05-10T06:31:15.330Z,99014.63
2023-05-10T06:33:41.681Z,99024.47
2023-05-10T06:36:08.160Z,99029.63
2023-05-10T06:38:34.524Z,99025.13
2023-05-10T06:41:01.516Z,99027.47
2023-05-10T06:43:29.515Z,99037.94
2023-05-10T06:45:55.824Z,99039.28
2023-05-10T06:48:22.305Z,99045.44
2023-05-10T06:50:48.703Z,99043.78
2023-05-10T06:53:15.039Z,99050.44
2023-05-10T06:55:41.333Z,99047.94
2023-05-10T06:58:07.726Z,99047.78
2023-05-10T07:00:34.125Z,99042.13
2023-05-10T07:03:00.486Z,99060.94
2023-05-10T07:05:28.838Z,99051.13
2023-05-10T07:07:55.439Z,99059.78
2023-05-10T07:10:21.789Z,99056.97
2023-05-10T07:12:48.234Z,99066.78
2023-05-10T07:15:14.795Z,99060.44
2023-05-10T07:17:43.252Z,99066.63
2023-05-10T07:20:11.584Z,99062.78
2023-05-10T07:22:38.008Z,99073.44
2023-05-10T07:25:04.605Z,99067.78
2023-05-10T07:27:31.216Z,99064.13
2023-05-10T07:29:57.581Z,99077.44
2023-05-10T07:32:24.284Z,99073.78
2023-05-10T07:34:50.736Z,99077.13
2023-05-10T07:37:17.067Z,99074.81
2023-05-10T07:39:43.397Z,99083.97
2023-05-10T07:42:09.815Z,99073.31
2023-05-10T07:44:36.243Z,99091.13
2023-05-10T07:47:02.552Z,99089.81
2023-05-10T07:49:28.853Z,99089.75
2023-05-10T07:51:55.171Z,99093.75
2023-05-10T07:54:21.515Z,99093.41
2023-05-10T07:56:48.128Z,99099.53
2023-05-10T07:59:18.315Z,99105.38
2023-05-10T08:01:44.875Z,99102.06
2023-05-10T08:04:11.316Z,99110.03
2023-05-10T08:06:37.937Z,99111.50
2023-05-10T08:09:04.267Z,99108.50
2023-05-10T08:11:30.859Z,99115.00
2023-05-10T08:13:57.536Z,99112.69
2023-05-10T08:16:24.048Z,99110.38
2023-05-10T08:18:51.555Z,99109.38
2023-05-10T08:21:18.185Z,99108.06
2023-05-10T08:23:45.075Z,99106.22
2023-05-10T08:26:12.236Z,99113.06
2023-05-10T08:28:38.661Z,99114.25
2023-05-10T08:31:05.898Z,99115.59
2023-05-10T08:33:32.272Z,99103.28
2023-05-10T08:35:58.614Z,99108.25
2023-05-10T08:38:25.637Z,99110.44
2023-05-10T08:40:57.328Z,99119.66
2023-05-10T08:43:27.982Z,99117.09
2023-05-10T08:45:55.625Z,99112.34
2023-05-10T08:48:25.336Z,99111.34
2023-05-10T08:50:57.395Z,99122.84
2023-05-10T08:53:27.417Z,99112.03
2023-05-10T08:55:54.283Z,99116.03
2023-05-10T08:58:21.211Z,99119.19
2023-05-10T09:00:52.318Z,99116.84
2023-05-10T09:03:19.235Z,99116.66
2023-05-10T09:05:46.033Z,99120.63
2023-05-10T09:08:13.789Z,99116.47
2023-05-10T09:10:41.180Z,99121.47
2023-05-10T09:13:09.962Z,99125.84
2023-05-10T09:15:36.420Z,99122.34
2023-05-10T09:18:03.383Z,99133.50
2023-05-10T09:20:29.855Z,99125.16
2023-05-10T09:22:56.262Z,99129.16
2023-05-10T09:25:23.513Z,99126.84
2023-05-10T09:27:49.933Z,99126.50
2023-05-10T09:30:30.181Z,99136.66
2023-05-10T09:32:58.352Z,99140.53
2023-05-10T09:35:29.667Z,99149.00
2023-05-10T09:37:58.525Z,99147.00
2023-05-10T09:40:26.523Z,99151.84
2023-05-10T09:42:56.465Z,99142.81
2023-05-10T09:45:24.338Z,99150.31
2023-05-10T09:47:50.861Z,99148.31
2023-05-10T09:50:17.703Z,99144.16
2023-05-10T09:52:48.223Z,99147.81
2023-05-10T09:55:15.018Z,99143.47
2023-05-10T09:57:41.897Z,99157.97
2023-05-10T10:00:10.938Z,99150.81
2023-05-10T10:02:40.493Z,99152.13
2023-05-10T10:05:08.190Z,99158.16
2023-05-10T10:07:35.680Z,99158.66
2023-05-10T10:10:03.012Z,99161.66
2023-05-10T10:12:29.541Z,99166.66
2023-05-10T10:14:56.456Z,99160.84
2023-05-10T10:17:22.796Z,99163.50
2023-05-10T10:19:49.381Z,99173.50
2023-05-10T10:22:15.867Z,99170.66
2023-05-10T10:24:42.496Z,99175.47
2023-05-10T10:27:21.069Z,99184.97
2023-05-10T10:30:05.063Z,99173.81
2023-05-10T10:32:57.633Z,99175.81
2023-05-10T10:35:24.077Z,99184.16
2023-05-10T10:37:51.877Z,99175.81
2023-05-10T10:40:33.662Z,99179.78
2023-05-10T10:43:33.368Z,99182.13
2023-05-10T10:46:18.104Z,99177.13
2023-05-10T10:49:08.690Z,99174.31
2023-05-10T10:51:38.963Z,99178.81
2023-05-10T10:54:12.100Z,99181.81
2023-05-10T10:56:38.852Z,99190.78
2023-05-10T10:59:05.441Z,99187.81
2023-05-10T11:01:36.113Z,99192.81
2023-05-10T11:04:18.078Z,99188.13
2023-05-10T11:06:44.547Z,99191.44
2023-05-10T11:09:13.432Z,99192.44
2023-05-10T11:11:51.962Z,99187.81
2023-05-10T11:14:22.812Z,99195.13
2023-05-10T11:16:49.228Z,99201.94
2023-05-10T11:19:23.450Z,99194.09
2023-05-10T11:21:52.142Z,99192.56
2023-05-10T11:24:20.778Z,99194.75
2023-05-10T11:26:50.914Z,99195.38
2023-05-10T11:29:17.718Z,99185.91
2023-05-10T11:31:47.886Z,99178.31
2023-05-10T11:34:28.029Z,99190.00
2023-05-10T11:36:55.924Z,99191.75
2023-05-10T11:39:26.039Z,99180.78
2023-05-10T11:41:52.448Z,99187.81
2023-05-10T11:44:18.813Z,99194.13
2023-05-10T11:46:45.283Z,99193.63
2023-05-10T11:49:11.790Z,99192.34
2023-05-10T11:51:38.257Z,99196.34
2023-05-10T11:54:10.337Z,99194.13
2023-05-10T11:56:38.566Z,99195.47
2023-05-10T11:59:04.901Z,99193.97
2023-05-10T12:01:31.568Z,99197.97
2023-05-10T12:04:02.004Z,99200.09
2023-05-10T12:06:30.324Z,99206.09
2023-05-10T12:08:56.833Z,99197.16
2023-05-10T12:11:26.787Z,99194.28
2023-05-10T12:13:54.018Z,99193.56
2023-05-10T12:16:22.227Z,99195.88
2023-05-10T12:18:52.860Z,99192.38
2023-05-10T12:21:20.877Z,99190.72
2023-05-10T12:23:49.254Z,99195.44
2023-05-10T12:26:15.770Z,99196.38
2023-05-10T12:28:42.123Z,99201.13
2023-05-10T12:31:08.651Z,99198.38
2023-05-10T12:33:39.888Z,99200.34
2023-05-10T12:36:07.515Z,99198.16
2023-05-10T12:38:35.193Z,99205.34
2023-05-10T12:41:03.867Z,99204.06
2023-05-10T12:43:31.153Z,99210.44
2023-05-10T12:45:57.617Z,99212.72
2023-05-10T12:48:23.962Z,99217.72
2023-05-10T12:50:51.072Z,99208.28
2023-05-10T12:53:17.727Z,99213.69
2023-05-10T12:55:44.929Z,99222.50
2023-05-10T12:58:13.894Z,99222.56
2023-05-10T13:00:44.725Z,99214.41
2023-05-10T13:03:11.462Z,99221.53
2023-05-10T13:05:38.026Z,99226.41
2023-05-10T13:08:04.587Z,99230.28
2023-05-10T13:10:31.673Z,99231.31
2023-05-10T13:12:59.216Z,99231.19
2023-05-10T13:15:26.209Z,99230.66
2023-05-10T13:17:53.885Z,99225.22
2023-05-10T13:20:20.401Z,99229.88
2023-05-10T13:22:47.163Z,99235.41
2023-05-10T13:25:13.874Z,99243.91
2023-05-10T13:27:41.356Z,99245.75
2023-05-10T13:30:08.946Z,99244.22
2023-05-10T13:32:35.728Z,99243.22
2023-05-10T13:35:04.047Z,99246.03
2023-05-10T13:37:31.221Z,99248.72
2023-05-10T13:39:57.575Z,99235.91
2023-05-10T13:42:24.430Z,99238.72
2023-05-10T13:44:51.447Z,99235.03
2023-05-10T13:47:17.767Z,99227.69
2023-05-10T13:49:44.082Z,99237.03
2023-05-10T13:52:10.918Z,99228.03
2023-05-10T13:54:37.977Z,99240.53
2023-05-10T13:57:05.299Z,99224.03
2023-05-10T13:59:34.753Z,99233.34
2023-05-10T14:02:03.370Z,99231.31
2023-05-10T14:04:30.526Z,99230.66
2023-05-10T14:06:56.998Z,99229.13
2023-05-10T14:09:23.282Z,99230.81
2023-05-10T14:11:49.666Z,99226.78
2023-05-10T14:14:16.013Z,99225.09
2023-05-10T14:16:45.873Z,99220.41
2023-05-10T14:19:12.952Z,99219.75
2023-05-10T14:21:39.369Z,99217.44
2023-05-10T14:24:30.465Z,99219.41
2023-05-10T14:26:56.736Z,99226.75
2023-05-10T14:29:23.118Z,99217.59
2023-05-10T14:31:49.525Z,99220.13
2023-05-10T14:34:16.172Z,99217.75
2023-05-10T14:36:42.463Z,99226.78
2023-05-10T14:39:10.720Z,99214.94
2023-05-10T14:41:37.140Z,99209.06
2023-05-10T14:44:04.270Z,99213.72
2023-05-10T14:46:30.839Z,99212.00
2023-05-10T14:48:57.209Z,99214.34
2023-05-10T14:51:23.552Z,99210.84
2023-05-10T14:53:52.834Z,99215.53
2023-05-10T14:56:19.452Z,99217.84
2023-05-10T14:58:45.775Z,99208.50
2023-05-10T15:01:12.138Z,99206.84
2023-05-10T15:03:38.910Z,99213.03
2023-05-10T15:06:06.914Z,99210.06
2023-05-10T15:08:33.335Z,99208.19
2023-05-10T15:10:59.634Z,99210.19
2023-05-10T15:13:26.184Z,99217.47
2023-05-10T15:15:52.670Z,99207.47
2023-05-10T15:18:19.095Z,99212.97
2023-05-10T15:20:46.488Z,99215.34
2023-05-10T15:23:13.362Z,99205.97
2023-05-10T15:25:40.306Z,99208.84
2023-05-10T15:28:06.662Z,99204.66
2023-05-10T15:30:33.047Z,99205.31
2023-05-10T15:32:59.744Z,99210.13
2023-05-10T15:35:27.669Z,99218.84
2023-05-10T15:37:54.018Z,99218.50
2023-05-10T15:40:20.428Z,99218.84
2023-05-10T15:42:46.742Z,99218.25
2023-05-10T15:45:13.538Z,99226.53
2023-05-10T15:47:42.802Z,99218.19
2023-05-10T15:50:09.832Z,99212.53
2023-05-10T15:52:36.998Z,99218.19
2023-05-10T15:55:04.018Z,99214.19
2023-05-10T15:57:30.374Z,99224.59
2023-05-10T15:59:56.733Z,99222.41
2023-05-10T16:02:23.530Z,99225.94
2023-05-10T16:04:49.967Z,99218.75
2023-05-10T16:07:16.292Z,99233.41
2023-05-10T16:09:42.633Z,99227.06
2023-05-10T16:12:09.041Z,99226.88
2023-05-10T16:14:35.385Z,99229.56
2023-05-10T16:17:05.110Z,99230.22
2023-05-10T16:19:31.821Z,99230.06
2023-05-10T16:21:58.270Z,99241.75
2023-05-10T16:24:25.756Z,99233.22
2023-05-10T16:26:52.149Z,99241.28
2023-05-10T16:29:18.518Z,99238.63
2023-05-10T16:31:44.895Z,99237.47
2023-05-10T16:34:11.207Z,99237.47
2023-05-10T16:36:37.620Z,99239.00
2023-05-10T16:39:04.117Z,99236.00
2023-05-10T16:41:34.329Z,99246.69
2023-05-10T16:44:01.321Z,99252.03
2023-05-10T16:46:27.628Z,99248.38
2023-05-10T16:48:54.128Z,99252.38
2023-05-10T16:51:20.428Z,99252.72
2023-05-10T16:53:46.811Z,99251.09
2023-05-10T16:56:13.142Z,99252.91
2023-05-10T16:58:39.496Z,99262.59
2023-05-10T17:01:06.048Z,99260.78
2023-05-10T17:03:32.490Z,99261.31
2023-05-10T17:05:58.948Z,99262.44
2023-05-10T17:08:25.402Z,99268.28
2023-05-10T17:10:51.703Z,99265.81
2023-05-10T17:13:18.556Z,99263.50
2023-05-10T17:15:47.191Z,99265.13
2023-05-10T17:18:13.597Z,99277.16
2023-05-10T17:20:39.960Z,99271.47
2023-05-10T17:23:06.350Z,99275.66
2023-05-10T17:25:35.128Z,99273.63
2023-05-10T17:28:01.498Z,99279.28
2023-05-10T17:30:28.753Z,99282.78
2023-05-10T17:32:55.245Z,99276.59
2023-05-10T17:35:21.588Z,99281.75
2023-05-10T17:37:48.017Z,99287.25
2023-05-10T17:40:14.552Z,99289.75
2023-05-10T17:42:40.883Z,99298.03
2023-05-10T17:45:07.820Z,99303.69
2023-05-10T17:47:34.307Z,99295.69
2023-05-10T17:50:00.806Z,99298.66
2023-05-10T17:52:28.745Z,99299.81
2023-05-10T17:54:56.184Z,99294.63
2023-05-10T17:57:24.203Z,99294.44
2023-05-10T17:59:51.103Z,99294.25
2023-05-10T18:02:17.441Z,99294.91
2023-05-10T18:04:43.791Z,99292.03
2023-05-10T18:07:10.207Z,99296.06
2023-05-10T18:09:36.518Z,99295.56
2023-05-10T18:12:03.142Z,99307.19
2023-05-10T18:14:39.840Z,99301.75
2023-05-10T18:17:08.169Z,99302.56
2023-05-10T18:19:34.600Z,99300.72
2023-05-10T18:22:00.978Z,99310.84
2023-05-10T18:24:38.475Z,99319.50
2023-05-10T18:27:06.712Z,99305.84
2023-05-10T18:29:33.177Z,99314.50
2023-05-10T18:31:59.638Z,99307.88
2023-05-10T18:34:26.221Z,99309.69
2023-05-10T18:36:52.846Z,99312.84
2023-05-10T18:39:19.446Z,99319.69
2023-05-10T18:41:45.891Z,99313.78
2023-05-10T18:44:12.252Z,99319.94
2023-05-10T18:46:38.837Z,99322.97
2023-05-10T18:49:06.347Z,99319.34
2023-05-10T18:51:32.702Z,99325.03
2023-05-10T18:53:59.082Z,99328.28
2023-05-10T18:56:25.445Z,99331.75
2023-05-10T18:58:52.224Z,99330.75
2023-05-10T19:01:18.527Z,99326.41
2023-05-10T19:03:44.891Z,99325.50
2023-05-10T19:06:11.424Z,99337.09
2023-05-10T19:08:37.767Z,99342.59
2023-05-10T19:11:04.054Z,99343.91
2023-05-10T19:13:30.417Z,99344.06
2023-05-10T19:16:05.551Z,99350.88
2023-05-10T19:18:33.146Z,99350.50
2023-05-10T19:21:03.510Z,99344.88
2023-05-10T19:23:32.846Z,99349.03
2023-05-10T19:25:59.342Z,99348.19
2023-05-10T19:28:26.243Z,99346.50
2023-05-10T19:30:52.905Z,99344.66
2023-05-10T19:33:19.605Z,99342.94
2023-05-10T19:35:45.990Z,99346.38
2023-05-10T19:38:12.289Z,99346.72
2023-05-10T19:40:38.590Z,99344.91
2023-05-10T19:43:04.965Z,99345.81
2023-05-10T19:45:31.277Z,99345.69
2023-05-10T19:47:57.680Z,99344.19
2023-05-10T19:50:24.036Z,99354.91
2023-05-10T19:52:50.441Z,99357.91
2023-05-10T19:55:26.632Z,99360.28
2023-05-10T19:57:52.958Z,99346.00
2023-05-10T20:00:19.530Z,99354.91
2023-05-10T20:02:45.859Z,99352.53
2023-05-10T20:05:12.197Z,99362.34
2023-05-10T20:07:38.656Z,99357.41
2023-05-10T20:10:05.289Z,99360.81
2023-05-10T20:12:31.625Z,99359.53
2023-05-10T20:14:57.939Z,99361.13
2023-05-10T20:17:24.314Z,99362.47
2023-05-10T20:19:50.694Z,99358.84
2023-05-10T20:22:16.991Z,99360.00
2023-05-10T20:24:43.654Z,99357.78
2023-05-10T20:27:09.962Z,99358.25
2023-05-10T20:29:36.524Z,99358.03
2023-05-10T20:32:02.828Z,99363.00
2023-05-10T20:34:29.214Z,99373.03
2023-05-10T20:36:55.510Z,99365.59
2023-05-10T20:39:21.796Z,99369.06
2023-05-10T20:41:48.470Z,99371.13
2023-05-10T20:44:14.841Z,99373.09
2023-05-10T20:46:41.454Z,99371.81
2023-05-10T20:49:08.528Z,99367.03
2023-05-10T20:51:34.940Z,99375.97
2023-05-10T20:54:04.350Z,99375.59
2023-05-10T20:56:31.134Z,99372.69
2023-05-10T20:58:57.512Z,99369.66
2023-05-10T21:01:23.859Z,99360.84
2023-05-10T21:03:50.242Z,99370.50
2023-05-10T21:06:16.549Z,99364.94
2023-05-10T21:08:42.872Z,99365.41
2023-05-10T21:11:09.228Z,99359.13
2023-05-10T21:13:35.621Z,99378.53
2023-05-10T21:16:01.969Z,99364.63
2023-05-10T21:18:28.499Z,99352.25
2023-05-10T21:20:54.940Z,99355.63
2023-05-10T21:23:21.301Z,99344.31
2023-05-10T21:25:47.712Z,99360.81
2023-05-10T21:28:14.108Z,99360.19
2023-05-10T21:30:40.443Z,99358.09
2023-05-10T21:33:06.982Z,99356.28
2023-05-10T21:35:33.382Z,99356.84
2023-05-10T21:37:59.726Z,99355.78
2023-05-10T21:40:26.162Z,99355.91
2023-05-10T21:42:52.527Z,99363.06
2023-05-10T21:45:20.077Z,99350.94
2023-05-10T21:47:46.470Z,99364.34
2023-05-10T21:50:12.888Z,99366.41
2023-05-10T21:52:39.301Z,99358.91
2023-05-10T21:55:06.218Z,99363.50
2023-05-10T21:57:32.602Z,99360.03
2023-05-10T21:59:58.912Z,99363.50
2023-05-10T22:02:25.564Z,99359.75
2023-05-10T22:04:51.911Z,99362.25
2023-05-10T22:07:18.307Z,99365.59
2023-05-10T22:09:44.652Z,99362.25
2023-05-10T22:12:11.921Z,99375.78
2023-05-10T22:14:38.316Z,99376.22
2023-05-10T22:17:04.690Z,99377.50
2023-05-10T22:19:31.162Z,99371.50
2023-05-10T22:21:57.444Z,99370.25
2023-05-10T22:24:23.786Z,99367.03
2023-05-10T22:26:50.089Z,99372.84
2023-05-10T22:29:16.819Z,99369.22
2023-05-10T22:31:43.139Z,99366.28
2023-05-10T22:34:09.496Z,99365.03
2023-05-10T22:36:36.220Z,99371.56
2023-05-10T22:39:02.560Z,99369.78
2023-05-10T22:41:28.859Z,99375.91
2023-05-10T22:43:55.332Z,99369.78
2023-05-10T22:46:21.774Z,99369.19
2023-05-10T22:48:48.341Z,99368.09
2023-05-10T22:51:14.631Z,99372.16
2023-05-10T22:53:41.218Z,99375.09
2023-05-10T22:56:07.531Z,99366.75
2023-05-10T22:58:34.240Z,99368.09
2023-05-10T23:01:00.606Z,99372.16
2023-05-10T23:03:26.983Z,99379.28
2023-05-10T23:05:53.287Z,99377.47
2023-05-10T23:08:19.627Z,99375.34
2023-05-10T23:10:46.302Z,99381.38
2023-05-10T23:13:13.429Z,99378.72
2023-05-10T23:15:40.237Z,99384.03
2023-05-10T23:18:06.718Z,99383.38
2023-05-10T23:20:33.212Z,99382.06
2023-05-10T23:22:59.528Z,99387.81
2023-05-10T23:25:25.990Z,99384.47
2023-05-10T23:27:52.324Z,99387.97
2023-05-10T23:30:18.862Z,99382.38
2023-05-10T23:32:45.440Z,99391.31
2023-05-10T23:35:11.775Z,99393.00
2023-05-10T23:37:38.140Z,99390.75
2023-05-10T23:40:05.085Z,99402.16
2023-05-10T23:42:32.452Z,99398.56
2023-05-10T23:44:58.759Z,99399.50
2023-05-10T23:47:25.102Z,99393.22
2023-05-10T23:49:51.529Z,99389.75
2023-05-10T23:52:17.859Z,99394.91
2023-05-10T23:54:45.850Z,99394.38
2023-05-10T23:57:12.295Z,99395.22
2023-05-10T23:59:38.578Z,99396.47
